Aviation Digital Data Service (ADDS)

Output produced by TAFs form (2113 UTC 20 October 2014)
found at http://aviationweather.gov/adds/tafs/
 
KSAF 201736Z 2018/2118 01010KT P6SM FEW070 
     FM202000 14010KT P6SM VCSH SCT070 SCT150 
     FM210300 11008KT P6SM BKN060 
     FM210700 02005KT P6SM SCT050 SCT090